Whitecourt, Canada
Current Conditions -  °F | °C
As of 10:00 PM on Saturday 24 Jan 2015 (Local Time) from CYZU Reporting Station
Overcast Overcast  
Wind Chill: 37°   Ceiling: 7000
Heat Index: 37°   Visibility: 15mi
Dew Point: 23°   Wind: 2mph
Humidity: 56%   Direction: NA
Pressure: 29.8"   Gusts: NA
Location:  54.13°N, 115.67°W
Report Text: CYZU 250500Z VRB02KT 15SM OVC070 03/M05 A2980 RMK AC8 LAST OBS/NEXT 251300Z SLP118
Loading
Personal Weather Stations






























Interactive Weather Map New forecast layout! Learn more

10-Day Weather Forecast

Advertisements
Track Severe Weather on mobile